sensor_id;sensor_type;location;lat;lon;timestamp;P1;durP1;ratioP1;P2;durP2;ratioP2
18102;SDS011;9178;51.120;6.192;2023-06-10T00:00:31;8.35;;;5.80;;
18102;SDS011;9178;51.120;6.192;2023-06-10T00:02:59;6.85;;;5.85;;
18102;SDS011;9178;51.120;6.192;2023-06-10T00:05:32;7.65;;;5.90;;
18102;SDS011;9178;51.120;6.192;2023-06-10T00:08:01;7.53;;;6.07;;
18102;SDS011;9178;51.120;6.192;2023-06-10T00:10:32;7.82;;;6.60;;
18102;SDS011;9178;51.120;6.192;2023-06-10T00:13:01;7.72;;;6.45;;
18102;SDS011;9178;51.120;6.192;2023-06-10T00:15:30;7.35;;;6.57;;
18102;SDS011;9178;51.120;6.192;2023-06-10T00:17:57;6.75;;;6.15;;
18102;SDS011;9178;51.120;6.192;2023-06-10T00:20:30;9.45;;;6.07;;
18102;SDS011;9178;51.120;6.192;2023-06-10T00:22:58;7.32;;;6.07;;
18102;SDS011;9178;51.120;6.192;2023-06-10T00:25:26;6.75;;;5.97;;
18102;SDS011;9178;51.120;6.192;2023-06-10T00:27:55;6.72;;;5.97;;
18102;SDS011;9178;51.120;6.192;2023-06-10T00:30:24;6.32;;;5.75;;
18102;SDS011;9178;51.120;6.192;2023-06-10T00:32:51;8.05;;;6.28;;
18102;SDS011;9178;51.120;6.192;2023-06-10T00:35:19;6.75;;;6.05;;
18102;SDS011;9178;51.120;6.192;2023-06-10T00:37:48;6.63;;;5.97;;
18102;SDS011;9178;51.120;6.192;2023-06-10T00:40:15;6.88;;;6.03;;
18102;SDS011;9178;51.120;6.192;2023-06-10T00:42:42;8.15;;;6.45;;
18102;SDS011;9178;51.120;6.192;2023-06-10T00:45:15;7.65;;;6.85;;
18102;SDS011;9178;51.120;6.192;2023-06-10T00:47:44;7.38;;;6.68;;
18102;SDS011;9178;51.120;6.192;2023-06-10T00:50:13;7.60;;;6.43;;
18102;SDS011;9178;51.120;6.192;2023-06-10T00:52:41;9.10;;;6.55;;
18102;SDS011;9178;51.120;6.192;2023-06-10T00:55:11;6.88;;;6.18;;
18102;SDS011;9178;51.120;6.192;2023-06-10T00:57:38;7.32;;;6.05;;
18102;SDS011;9178;51.120;6.192;2023-06-10T01:00:06;7.15;;;6.47;;
18102;SDS011;9178;51.120;6.192;2023-06-10T01:02:36;7.10;;;6.50;;
18102;SDS011;9178;51.120;6.192;2023-06-10T01:05:04;7.55;;;6.85;;
18102;SDS011;9178;51.120;6.192;2023-06-10T01:07:34;8.00;;;7.30;;
18102;SDS011;9178;51.120;6.192;2023-06-10T01:10:09;8.45;;;6.85;;
18102;SDS011;9178;51.120;6.192;2023-06-10T01:12:43;8.40;;;7.47;;
18102;SDS011;9178;51.120;6.192;2023-06-10T01:15:17;8.15;;;7.43;;
18102;SDS011;9178;51.120;6.192;2023-06-10T01:17:55;7.88;;;7.28;;
18102;SDS011;9178;51.120;6.192;2023-06-10T01:20:27;7.47;;;6.82;;
18102;SDS011;9178;51.120;6.192;2023-06-10T01:22:58;8.18;;;7.40;;
18102;SDS011;9178;51.120;6.192;2023-06-10T01:25:29;8.40;;;7.60;;
18102;SDS011;9178;51.120;6.192;2023-06-10T01:28:00;7.95;;;7.18;;
18102;SDS011;9178;51.120;6.192;2023-06-10T01:30:32;7.82;;;7.13;;
18102;SDS011;9178;51.120;6.192;2023-06-10T01:33:09;7.60;;;6.90;;
18102;SDS011;9178;51.120;6.192;2023-06-10T01:35:37;8.27;;;7.60;;
18102;SDS011;9178;51.120;6.192;2023-06-10T01:38:06;7.90;;;7.10;;
18102;SDS011;9178;51.120;6.192;2023-06-10T01:40:34;8.05;;;7.35;;
18102;SDS011;9178;51.120;6.192;2023-06-10T01:43:02;8.27;;;7.32;;
18102;SDS011;9178;51.120;6.192;2023-06-10T01:45:30;8.75;;;7.90;;
18102;SDS011;9178;51.120;6.192;2023-06-10T01:47:57;8.45;;;7.60;;
18102;SDS011;9178;51.120;6.192;2023-06-10T01:50:27;8.43;;;7.68;;
18102;SDS011;9178;51.120;6.192;2023-06-10T01:52:56;8.23;;;7.28;;
18102;SDS011;9178;51.120;6.192;2023-06-10T01:55:25;8.30;;;7.57;;
18102;SDS011;9178;51.120;6.192;2023-06-10T01:57:51;8.50;;;7.60;;
18102;SDS011;9178;51.120;6.192;2023-06-10T02:00:18;9.93;;;8.50;;
18102;SDS011;9178;51.120;6.192;2023-06-10T02:02:45;8.32;;;7.53;;
18102;SDS011;9178;51.120;6.192;2023-06-10T02:05:13;8.57;;;7.88;;
18102;SDS011;9178;51.120;6.192;2023-06-10T02:07:40;10.52;;;8.65;;
18102;SDS011;9178;51.120;6.192;2023-06-10T02:10:08;8.18;;;7.47;;
18102;SDS011;9178;51.120;6.192;2023-06-10T02:12:40;9.38;;;8.38;;
18102;SDS011;9178;51.120;6.192;2023-06-10T02:15:12;11.23;;;10.13;;
18102;SDS011;9178;51.120;6.192;2023-06-10T02:17:39;10.02;;;9.13;;
18102;SDS011;9178;51.120;6.192;2023-06-10T02:30:16;9.18;;;8.30;;
18102;SDS011;9178;51.120;6.192;2023-06-10T02:32:44;9.00;;;8.23;;
18102;SDS011;9178;51.120;6.192;2023-06-10T02:35:16;9.15;;;8.27;;
18102;SDS011;9178;51.120;6.192;2023-06-10T02:37:44;9.15;;;8.15;;
18102;SDS011;9178;51.120;6.192;2023-06-10T02:40:11;9.40;;;8.20;;
18102;SDS011;9178;51.120;6.192;2023-06-10T02:42:38;9.55;;;8.55;;
18102;SDS011;9178;51.120;6.192;2023-06-10T02:45:09;10.30;;;8.50;;
18102;SDS011;9178;51.120;6.192;2023-06-10T02:47:38;8.70;;;7.90;;
18102;SDS011;9178;51.120;6.192;2023-06-10T02:50:06;9.20;;;8.35;;
18102;SDS011;9178;51.120;6.192;2023-06-10T02:52:33;8.57;;;7.78;;
18102;SDS011;9178;51.120;6.192;2023-06-10T02:55:00;9.27;;;8.37;;
18102;SDS011;9178;51.120;6.192;2023-06-10T02:57:29;8.93;;;8.13;;
18102;SDS011;9178;51.120;6.192;2023-06-10T03:00:00;10.27;;;8.57;;
18102;SDS011;9178;51.120;6.192;2023-06-10T03:02:36;9.60;;;8.53;;
18102;SDS011;9178;51.120;6.192;2023-06-10T03:05:06;9.20;;;8.30;;
18102;SDS011;9178;51.120;6.192;2023-06-10T03:07:35;9.10;;;8.30;;
18102;SDS011;9178;51.120;6.192;2023-06-10T03:10:05;9.10;;;8.20;;
18102;SDS011;9178;51.120;6.192;2023-06-10T03:12:36;9.75;;;8.88;;
18102;SDS011;9178;51.120;6.192;2023-06-10T03:15:04;10.03;;;7.67;;
18102;SDS011;9178;51.120;6.192;2023-06-10T03:17:36;10.07;;;8.10;;
18102;SDS011;9178;51.120;6.192;2023-06-10T03:20:05;8.97;;;8.17;;
18102;SDS011;9178;51.120;6.192;2023-06-10T03:22:44;8.50;;;7.80;;
18102;SDS011;9178;51.120;6.192;2023-06-10T03:25:16;8.93;;;8.13;;
18102;SDS011;9178;51.120;6.192;2023-06-10T03:27:46;8.52;;;7.75;;
18102;SDS011;9178;51.120;6.192;2023-06-10T03:30:20;9.10;;;8.20;;
18102;SDS011;9178;51.120;6.192;2023-06-10T03:32:51;9.20;;;8.30;;
18102;SDS011;9178;51.120;6.192;2023-06-10T03:35:18;8.90;;;8.17;;
18102;SDS011;9178;51.120;6.192;2023-06-10T03:37:45;9.37;;;8.47;;
18102;SDS011;9178;51.120;6.192;2023-06-10T03:40:13;8.63;;;7.73;;
18102;SDS011;9178;51.120;6.192;2023-06-10T03:42:40;10.13;;;8.57;;
18102;SDS011;9178;51.120;6.192;2023-06-10T03:45:10;8.43;;;7.53;;
18102;SDS011;9178;51.120;6.192;2023-06-10T03:47:37;9.33;;;8.00;;
18102;SDS011;9178;51.120;6.192;2023-06-10T03:50:07;8.57;;;7.60;;
18102;SDS011;9178;51.120;6.192;2023-06-10T03:52:35;8.37;;;7.50;;
18102;SDS011;9178;51.120;6.192;2023-06-10T03:55:04;7.95;;;7.25;;
18102;SDS011;9178;51.120;6.192;2023-06-10T03:57:34;8.23;;;7.53;;
18102;SDS011;9178;51.120;6.192;2023-06-10T04:00:01;7.68;;;6.97;;
18102;SDS011;9178;51.120;6.192;2023-06-10T04:02:35;7.72;;;7.03;;
18102;SDS011;9178;51.120;6.192;2023-06-10T04:05:02;7.60;;;6.87;;
18102;SDS011;9178;51.120;6.192;2023-06-10T04:07:34;10.60;;;7.70;;
18102;SDS011;9178;51.120;6.192;2023-06-10T04:10:06;8.47;;;7.70;;
18102;SDS011;9178;51.120;6.192;2023-06-10T04:12:34;8.77;;;7.03;;
18102;SDS011;9178;51.120;6.192;2023-06-10T04:15:01;7.93;;;7.23;;
18102;SDS011;9178;51.120;6.192;2023-06-10T04:17:29;7.73;;;7.03;;
18102;SDS011;9178;51.120;6.192;2023-06-10T04:19:56;7.97;;;7.07;;
18102;SDS011;9178;51.120;6.192;2023-06-10T04:22:23;8.55;;;7.82;;
18102;SDS011;9178;51.120;6.192;2023-06-10T04:24:53;8.10;;;7.30;;
18102;SDS011;9178;51.120;6.192;2023-06-10T04:27:22;8.73;;;7.50;;
18102;SDS011;9178;51.120;6.192;2023-06-10T04:29:49;8.30;;;7.50;;
18102;SDS011;9178;51.120;6.192;2023-06-10T04:32:20;8.30;;;7.50;;
18102;SDS011;9178;51.120;6.192;2023-06-10T04:34:47;9.57;;;7.32;;
18102;SDS011;9178;51.120;6.192;2023-06-10T04:37:15;8.02;;;7.32;;
18102;SDS011;9178;51.120;6.192;2023-06-10T04:39:45;8.48;;;7.00;;
18102;SDS011;9178;51.120;6.192;2023-06-10T04:42:15;7.20;;;6.60;;
18102;SDS011;9178;51.120;6.192;2023-06-10T04:44:43;8.00;;;7.20;;
18102;SDS011;9178;51.120;6.192;2023-06-10T04:47:10;7.85;;;7.05;;
18102;SDS011;9178;51.120;6.192;2023-06-10T04:49:42;8.27;;;6.43;;
18102;SDS011;9178;51.120;6.192;2023-06-10T04:52:09;10.35;;;6.90;;
18102;SDS011;9178;51.120;6.192;2023-06-10T04:54:36;8.52;;;6.57;;
18102;SDS011;9178;51.120;6.192;2023-06-10T04:57:04;7.20;;;6.43;;
18102;SDS011;9178;51.120;6.192;2023-06-10T04:59:35;8.45;;;7.15;;
18102;SDS011;9178;51.120;6.192;2023-06-10T05:02:05;7.25;;;6.65;;
18102;SDS011;9178;51.120;6.192;2023-06-10T05:07:33;7.15;;;6.45;;
18102;SDS011;9178;51.120;6.192;2023-06-10T05:10:05;7.65;;;6.40;;
18102;SDS011;9178;51.120;6.192;2023-06-10T05:12:36;6.97;;;6.38;;
18102;SDS011;9178;51.120;6.192;2023-06-10T05:15:07;6.78;;;6.18;;
18102;SDS011;9178;51.120;6.192;2023-06-10T05:17:57;7.95;;;6.40;;
18102;SDS011;9178;51.120;6.192;2023-06-10T05:20:28;7.15;;;6.50;;
18102;SDS011;9178;51.120;6.192;2023-06-10T05:22:55;6.90;;;6.30;;
18102;SDS011;9178;51.120;6.192;2023-06-10T05:25:30;9.02;;;6.90;;
18102;SDS011;9178;51.120;6.192;2023-06-10T05:28:02;7.68;;;6.10;;
18102;SDS011;9178;51.120;6.192;2023-06-10T05:30:33;7.25;;;6.60;;
18102;SDS011;9178;51.120;6.192;2023-06-10T05:33:03;7.50;;;6.30;;
18102;SDS011;9178;51.120;6.192;2023-06-10T05:35:41;6.55;;;6.03;;
18102;SDS011;9178;51.120;6.192;2023-06-10T05:38:08;8.95;;;6.28;;
18102;SDS011;9178;51.120;6.192;2023-06-10T05:40:35;6.35;;;5.85;;
18102;SDS011;9178;51.120;6.192;2023-06-10T05:43:05;9.02;;;6.95;;
18102;SDS011;9178;51.120;6.192;2023-06-10T05:45:34;6.68;;;6.10;;
18102;SDS011;9178;51.120;6.192;2023-06-10T05:48:03;7.13;;;6.25;;
18102;SDS011;9178;51.120;6.192;2023-06-10T05:50:30;7.35;;;6.65;;
18102;SDS011;9178;51.120;6.192;2023-06-10T05:53:13;6.60;;;5.90;;
18102;SDS011;9178;51.120;6.192;2023-06-10T05:55:51;6.40;;;5.80;;
18102;SDS011;9178;51.120;6.192;2023-06-10T05:58:25;6.85;;;6.13;;
18102;SDS011;9178;51.120;6.192;2023-06-10T06:00:54;7.95;;;6.07;;
18102;SDS011;9178;51.120;6.192;2023-06-10T06:03:21;6.60;;;6.00;;
18102;SDS011;9178;51.120;6.192;2023-06-10T06:05:48;9.73;;;6.18;;
18102;SDS011;9178;51.120;6.192;2023-06-10T06:08:18;6.95;;;5.97;;
18102;SDS011;9178;51.120;6.192;2023-06-10T06:10:45;9.98;;;6.32;;
18102;SDS011;9178;51.120;6.192;2023-06-10T06:13:13;6.45;;;5.90;;
18102;SDS011;9178;51.120;6.192;2023-06-10T06:15:46;7.38;;;6.63;;
18102;SDS011;9178;51.120;6.192;2023-06-10T06:18:15;6.68;;;6.07;;
18102;SDS011;9178;51.120;6.192;2023-06-10T06:20:46;8.30;;;6.32;;
18102;SDS011;9178;51.120;6.192;2023-06-10T06:23:13;6.10;;;5.50;;
18102;SDS011;9178;51.120;6.192;2023-06-10T06:25:47;6.50;;;5.90;;
18102;SDS011;9178;51.120;6.192;2023-06-10T06:28:14;6.50;;;5.90;;
18102;SDS011;9178;51.120;6.192;2023-06-10T06:30:54;7.72;;;6.03;;
18102;SDS011;9178;51.120;6.192;2023-06-10T06:33:23;6.82;;;6.13;;
18102;SDS011;9178;51.120;6.192;2023-06-10T06:35:51;6.20;;;5.60;;
18102;SDS011;9178;51.120;6.192;2023-06-10T06:38:18;6.22;;;5.68;;
18102;SDS011;9178;51.120;6.192;2023-06-10T06:40:48;6.35;;;5.63;;
18102;SDS011;9178;51.120;6.192;2023-06-10T06:43:20;6.40;;;5.88;;
18102;SDS011;9178;51.120;6.192;2023-06-10T06:45:47;7.85;;;5.40;;
18102;SDS011;9178;51.120;6.192;2023-06-10T06:48:15;6.00;;;5.40;;
18102;SDS011;9178;51.120;6.192;2023-06-10T06:50:47;8.00;;;5.55;;
18102;SDS011;9178;51.120;6.192;2023-06-10T06:53:16;6.20;;;5.60;;
18102;SDS011;9178;51.120;6.192;2023-06-10T06:55:44;8.77;;;5.43;;
18102;SDS011;9178;51.120;6.192;2023-06-10T06:58:11;6.28;;;5.68;;
18102;SDS011;9178;51.120;6.192;2023-06-10T07:00:38;6.97;;;5.38;;
18102;SDS011;9178;51.120;6.192;2023-06-10T07:03:08;6.40;;;5.80;;
18102;SDS011;9178;51.120;6.192;2023-06-10T07:05:35;6.28;;;5.50;;
18102;SDS011;9178;51.120;6.192;2023-06-10T07:08:07;6.10;;;5.40;;
18102;SDS011;9178;51.120;6.192;2023-06-10T07:10:41;8.07;;;5.50;;
18102;SDS011;9178;51.120;6.192;2023-06-10T07:13:09;7.35;;;5.28;;
18102;SDS011;9178;51.120;6.192;2023-06-10T07:15:41;9.82;;;5.13;;
18102;SDS011;9178;51.120;6.192;2023-06-10T07:18:11;6.40;;;4.68;;
18102;SDS011;9178;51.120;6.192;2023-06-10T07:20:38;6.15;;;4.88;;
18102;SDS011;9178;51.120;6.192;2023-06-10T07:23:09;5.38;;;4.90;;
18102;SDS011;9178;51.120;6.192;2023-06-10T07:25:38;5.82;;;4.97;;
18102;SDS011;9178;51.120;6.192;2023-06-10T07:28:21;6.57;;;5.07;;
18102;SDS011;9178;51.120;6.192;2023-06-10T07:31:04;5.78;;;4.78;;
18102;SDS011;9178;51.120;6.192;2023-06-10T07:33:32;5.38;;;4.20;;
18102;SDS011;9178;51.120;6.192;2023-06-10T07:35:59;6.07;;;4.47;;
18102;SDS011;9178;51.120;6.192;2023-06-10T07:38:31;4.65;;;4.07;;
18102;SDS011;9178;51.120;6.192;2023-06-10T07:40:59;7.57;;;4.53;;
18102;SDS011;9178;51.120;6.192;2023-06-10T07:43:34;4.43;;;4.00;;
18102;SDS011;9178;51.120;6.192;2023-06-10T07:46:03;4.35;;;3.95;;
18102;SDS011;9178;51.120;6.192;2023-06-10T07:48:43;4.85;;;4.25;;
18102;SDS011;9178;51.120;6.192;2023-06-10T07:51:21;4.78;;;4.35;;
18102;SDS011;9178;51.120;6.192;2023-06-10T07:53:50;5.32;;;4.82;;
18102;SDS011;9178;51.120;6.192;2023-06-10T07:56:29;21.83;;;5.53;;
18102;SDS011;9178;51.120;6.192;2023-06-10T07:58:56;6.38;;;4.78;;
18102;SDS011;9178;51.120;6.192;2023-06-10T08:01:30;8.10;;;4.57;;
18102;SDS011;9178;51.120;6.192;2023-06-10T08:03:58;5.75;;;4.18;;
18102;SDS011;9178;51.120;6.192;2023-06-10T08:06:25;7.38;;;4.07;;
18102;SDS011;9178;51.120;6.192;2023-06-10T08:09:02;5.22;;;4.63;;
18102;SDS011;9178;51.120;6.192;2023-06-10T08:11:29;7.18;;;4.40;;
18102;SDS011;9178;51.120;6.192;2023-06-10T08:13:56;6.32;;;4.63;;
18102;SDS011;9178;51.120;6.192;2023-06-10T08:16:31;5.28;;;4.78;;
18102;SDS011;9178;51.120;6.192;2023-06-10T08:19:04;6.63;;;4.65;;
18102;SDS011;9178;51.120;6.192;2023-06-10T08:21:32;4.80;;;4.40;;
18102;SDS011;9178;51.120;6.192;2023-06-10T08:24:00;5.75;;;4.75;;
18102;SDS011;9178;51.120;6.192;2023-06-10T08:26:28;5.00;;;4.60;;
18102;SDS011;9178;51.120;6.192;2023-06-10T08:28:55;6.95;;;4.40;;
18102;SDS011;9178;51.120;6.192;2023-06-10T08:31:25;8.00;;;4.32;;
18102;SDS011;9178;51.120;6.192;2023-06-10T08:33:55;8.20;;;5.07;;
18102;SDS011;9178;51.120;6.192;2023-06-10T08:36:22;4.82;;;4.28;;
18102;SDS011;9178;51.120;6.192;2023-06-10T08:38:55;8.02;;;4.97;;
18102;SDS011;9178;51.120;6.192;2023-06-10T08:41:23;6.32;;;4.57;;
18102;SDS011;9178;51.120;6.192;2023-06-10T08:46:45;5.22;;;4.72;;
18102;SDS011;9178;51.120;6.192;2023-06-10T08:49:18;7.65;;;4.75;;
18102;SDS011;9178;51.120;6.192;2023-06-10T08:51:51;6.65;;;4.72;;
18102;SDS011;9178;51.120;6.192;2023-06-10T08:54:21;4.32;;;3.97;;
18102;SDS011;9178;51.120;6.192;2023-06-10T08:56:53;6.38;;;4.32;;
18102;SDS011;9178;51.120;6.192;2023-06-10T08:59:22;15.82;;;6.00;;
18102;SDS011;9178;51.120;6.192;2023-06-10T09:01:51;4.38;;;3.88;;
18102;SDS011;9178;51.120;6.192;2023-06-10T09:04:19;5.20;;;4.70;;
18102;SDS011;9178;51.120;6.192;2023-06-10T09:06:55;6.63;;;4.75;;
18102;SDS011;9178;51.120;6.192;2023-06-10T09:09:23;6.90;;;4.45;;
18102;SDS011;9178;51.120;6.192;2023-06-10T09:11:57;4.38;;;3.97;;
18102;SDS011;9178;51.120;6.192;2023-06-10T09:14:25;5.10;;;4.63;;
18102;SDS011;9178;51.120;6.192;2023-06-10T09:16:52;5.72;;;4.40;;
18102;SDS011;9178;51.120;6.192;2023-06-10T09:19:23;4.60;;;4.20;;
18102;SDS011;9178;51.120;6.192;2023-06-10T09:21:51;6.93;;;4.53;;
18102;SDS011;9178;51.120;6.192;2023-06-10T09:24:19;4.70;;;4.30;;
18102;SDS011;9178;51.120;6.192;2023-06-10T09:27:05;6.28;;;4.57;;
18102;SDS011;9178;51.120;6.192;2023-06-10T09:29:44;5.40;;;4.38;;
18102;SDS011;9178;51.120;6.192;2023-06-10T09:32:13;7.97;;;4.57;;
18102;SDS011;9178;51.120;6.192;2023-06-10T09:34:41;7.70;;;4.45;;
18102;SDS011;9178;51.120;6.192;2023-06-10T09:37:13;4.45;;;4.05;;
18102;SDS011;9178;51.120;6.192;2023-06-10T09:40:04;5.55;;;4.13;;
18102;SDS011;9178;51.120;6.192;2023-06-10T09:42:37;8.18;;;4.82;;
18102;SDS011;9178;51.120;6.192;2023-06-10T09:45:06;6.75;;;4.50;;
18102;SDS011;9178;51.120;6.192;2023-06-10T09:47:45;4.50;;;4.20;;
18102;SDS011;9178;51.120;6.192;2023-06-10T09:50:13;6.03;;;3.97;;
18102;SDS011;9178;51.120;6.192;2023-06-10T09:52:40;5.40;;;4.28;;
18102;SDS011;9178;51.120;6.192;2023-06-10T09:55:18;4.63;;;4.22;;
18102;SDS011;9178;51.120;6.192;2023-06-10T09:57:46;4.40;;;4.00;;
18102;SDS011;9178;51.120;6.192;2023-06-10T10:00:16;5.15;;;4.22;;
18102;SDS011;9178;51.120;6.192;2023-06-10T10:02:45;7.82;;;4.10;;
18102;SDS011;9178;51.120;6.192;2023-06-10T10:05:27;6.63;;;4.13;;
18102;SDS011;9178;51.120;6.192;2023-06-10T10:07:59;5.22;;;4.25;;
18102;SDS011;9178;51.120;6.192;2023-06-10T10:10:26;6.20;;;4.15;;
18102;SDS011;9178;51.120;6.192;2023-06-10T10:12:55;4.78;;;4.00;;
18102;SDS011;9178;51.120;6.192;2023-06-10T10:15:24;10.82;;;4.10;;
18102;SDS011;9178;51.120;6.192;2023-06-10T10:18:02;5.90;;;4.40;;
18102;SDS011;9178;51.120;6.192;2023-06-10T10:20:38;4.80;;;4.38;;
18102;SDS011;9178;51.120;6.192;2023-06-10T10:23:18;9.35;;;4.32;;
18102;SDS011;9178;51.120;6.192;2023-06-10T10:25:51;5.65;;;4.07;;
18102;SDS011;9178;51.120;6.192;2023-06-10T10:28:23;5.55;;;4.25;;
18102;SDS011;9178;51.120;6.192;2023-06-10T10:30:54;7.25;;;4.20;;
18102;SDS011;9178;51.120;6.192;2023-06-10T10:33:27;4.53;;;3.85;;
18102;SDS011;9178;51.120;6.192;2023-06-10T10:36:07;9.73;;;4.15;;
18102;SDS011;9178;51.120;6.192;2023-06-10T10:38:35;8.15;;;4.40;;
18102;SDS011;9178;51.120;6.192;2023-06-10T10:41:03;6.95;;;4.15;;
18102;SDS011;9178;51.120;6.192;2023-06-10T10:43:33;8.30;;;4.07;;
18102;SDS011;9178;51.120;6.192;2023-06-10T10:46:12;4.82;;;4.40;;
18102;SDS011;9178;51.120;6.192;2023-06-10T10:48:43;7.40;;;4.03;;
18102;SDS011;9178;51.120;6.192;2023-06-10T10:51:11;4.45;;;4.05;;
18102;SDS011;9178;51.120;6.192;2023-06-10T10:53:41;4.20;;;3.83;;
18102;SDS011;9178;51.120;6.192;2023-06-10T10:56:12;4.50;;;3.83;;
18102;SDS011;9178;51.120;6.192;2023-06-10T10:58:42;4.50;;;4.10;;
18102;SDS011;9178;51.120;6.192;2023-06-10T11:01:40;4.15;;;3.75;;
18102;SDS011;9178;51.120;6.192;2023-06-10T11:04:11;5.40;;;4.00;;
18102;SDS011;9178;51.120;6.192;2023-06-10T11:06:48;4.22;;;3.83;;
18102;SDS011;9178;51.120;6.192;2023-06-10T11:09:26;4.28;;;3.88;;
18102;SDS011;9178;51.120;6.192;2023-06-10T11:11:56;4.43;;;3.60;;
18102;SDS011;9178;51.120;6.192;2023-06-10T11:14:29;7.72;;;4.45;;
18102;SDS011;9178;51.120;6.192;2023-06-10T11:17:03;5.03;;;4.07;;
18102;SDS011;9178;51.120;6.192;2023-06-10T11:19:48;18.13;;;4.35;;
18102;SDS011;9178;51.120;6.192;2023-06-10T11:22:16;4.10;;;3.65;;
18102;SDS011;9178;51.120;6.192;2023-06-10T11:24:47;4.63;;;3.95;;
18102;SDS011;9178;51.120;6.192;2023-06-10T11:27:15;5.30;;;3.60;;
18102;SDS011;9178;51.120;6.192;2023-06-10T11:29:57;3.90;;;3.50;;
18102;SDS011;9178;51.120;6.192;2023-06-10T11:32:30;4.53;;;3.40;;
18102;SDS011;9178;51.120;6.192;2023-06-10T11:34:59;4.45;;;3.90;;
18102;SDS011;9178;51.120;6.192;2023-06-10T11:37:26;4.05;;;3.65;;
18102;SDS011;9178;51.120;6.192;2023-06-10T11:39:54;4.13;;;3.80;;
18102;SDS011;9178;51.120;6.192;2023-06-10T11:42:22;4.25;;;3.88;;
18102;SDS011;9178;51.120;6.192;2023-06-10T11:44:49;4.13;;;3.70;;
18102;SDS011;9178;51.120;6.192;2023-06-10T11:47:21;4.07;;;3.72;;
18102;SDS011;9178;51.120;6.192;2023-06-10T11:49:55;4.50;;;3.88;;
18102;SDS011;9178;51.120;6.192;2023-06-10T11:52:25;6.03;;;3.92;;
18102;SDS011;9178;51.120;6.192;2023-06-10T11:55:03;6.38;;;3.90;;
18102;SDS011;9178;51.120;6.192;2023-06-10T11:57:33;4.85;;;4.18;;
18102;SDS011;9178;51.120;6.192;2023-06-10T12:00:03;4.47;;;4.07;;
18102;SDS011;9178;51.120;6.192;2023-06-10T12:02:33;3.95;;;3.65;;
18102;SDS011;9178;51.120;6.192;2023-06-10T12:05:09;6.38;;;3.88;;
18102;SDS011;9178;51.120;6.192;2023-06-10T12:07:37;3.95;;;3.65;;
18102;SDS011;9178;51.120;6.192;2023-06-10T12:10:08;4.32;;;3.65;;
18102;SDS011;9178;51.120;6.192;2023-06-10T12:12:37;5.68;;;3.72;;
18102;SDS011;9178;51.120;6.192;2023-06-10T12:15:06;7.15;;;4.53;;
18102;SDS011;9178;51.120;6.192;2023-06-10T12:17:37;8.07;;;4.50;;
18102;SDS011;9178;51.120;6.192;2023-06-10T12:20:05;21.73;;;4.70;;
18102;SDS011;9178;51.120;6.192;2023-06-10T12:22:38;4.20;;;3.80;;
18102;SDS011;9178;51.120;6.192;2023-06-10T12:25:06;4.78;;;4.00;;
18102;SDS011;9178;51.120;6.192;2023-06-10T12:27:35;7.03;;;4.28;;
18102;SDS011;9178;51.120;6.192;2023-06-10T12:30:03;5.45;;;4.00;;
18102;SDS011;9178;51.120;6.192;2023-06-10T12:32:35;4.57;;;4.20;;
18102;SDS011;9178;51.120;6.192;2023-06-10T12:35:14;4.13;;;3.83;;
18102;SDS011;9178;51.120;6.192;2023-06-10T12:37:43;6.10;;;4.30;;
18102;SDS011;9178;51.120;6.192;2023-06-10T12:40:25;4.88;;;4.20;;
18102;SDS011;9178;51.120;6.192;2023-06-10T12:42:53;6.15;;;4.10;;
18102;SDS011;9178;51.120;6.192;2023-06-10T12:45:25;7.10;;;4.38;;
18102;SDS011;9178;51.120;6.192;2023-06-10T12:48:05;6.13;;;4.63;;
18102;SDS011;9178;51.120;6.192;2023-06-10T12:50:44;4.38;;;3.95;;
18102;SDS011;9178;51.120;6.192;2023-06-10T12:53:16;5.28;;;4.32;;
18102;SDS011;9178;51.120;6.192;2023-06-10T12:55:44;4.63;;;4.22;;
18102;SDS011;9178;51.120;6.192;2023-06-10T12:58:12;5.97;;;4.55;;
18102;SDS011;9178;51.120;6.192;2023-06-10T13:00:39;7.68;;;4.13;;
18102;SDS011;9178;51.120;6.192;2023-06-10T13:03:09;7.93;;;4.30;;
18102;SDS011;9178;51.120;6.192;2023-06-10T13:05:37;3.90;;;3.60;;
18102;SDS011;9178;51.120;6.192;2023-06-10T13:08:05;5.30;;;4.22;;
18102;SDS011;9178;51.120;6.192;2023-06-10T13:10:36;4.93;;;4.45;;
18102;SDS011;9178;51.120;6.192;2023-06-10T13:13:05;4.32;;;3.92;;
18102;SDS011;9178;51.120;6.192;2023-06-10T13:15:37;6.50;;;3.85;;
18102;SDS011;9178;51.120;6.192;2023-06-10T13:18:05;7.70;;;4.00;;
18102;SDS011;9178;51.120;6.192;2023-06-10T13:20:36;4.50;;;4.10;;
18102;SDS011;9178;51.120;6.192;2023-06-10T13:23:05;4.72;;;3.90;;
18102;SDS011;9178;51.120;6.192;2023-06-10T13:25:35;4.40;;;3.92;;
18102;SDS011;9178;51.120;6.192;2023-06-10T13:28:02;4.75;;;4.30;;
18102;SDS011;9178;51.120;6.192;2023-06-10T13:30:30;6.07;;;4.07;;
18102;SDS011;9178;51.120;6.192;2023-06-10T13:32:57;4.20;;;3.90;;
18102;SDS011;9178;51.120;6.192;2023-06-10T13:35:25;5.38;;;4.07;;
18102;SDS011;9178;51.120;6.192;2023-06-10T13:37:58;4.90;;;4.30;;
18102;SDS011;9178;51.120;6.192;2023-06-10T13:40:26;12.63;;;4.40;;
18102;SDS011;9178;51.120;6.192;2023-06-10T13:42:53;5.38;;;4.00;;
18102;SDS011;9178;51.120;6.192;2023-06-10T13:45:20;5.57;;;3.88;;
18102;SDS011;9178;51.120;6.192;2023-06-10T13:47:50;9.25;;;4.80;;
18102;SDS011;9178;51.120;6.192;2023-06-10T13:50:18;6.00;;;3.72;;
18102;SDS011;9178;51.120;6.192;2023-06-10T13:52:45;5.20;;;4.22;;
18102;SDS011;9178;51.120;6.192;2023-06-10T13:55:13;9.77;;;3.95;;
18102;SDS011;9178;51.120;6.192;2023-06-10T13:57:41;4.60;;;4.10;;
18102;SDS011;9178;51.120;6.192;2023-06-10T14:00:08;5.95;;;4.30;;
18102;SDS011;9178;51.120;6.192;2023-06-10T14:02:36;4.88;;;3.90;;
18102;SDS011;9178;51.120;6.192;2023-06-10T14:05:04;4.68;;;3.85;;
18102;SDS011;9178;51.120;6.192;2023-06-10T14:07:35;6.70;;;3.90;;
18102;SDS011;9178;51.120;6.192;2023-06-10T14:10:03;4.40;;;4.00;;
18102;SDS011;9178;51.120;6.192;2023-06-10T14:12:32;3.85;;;3.47;;
18102;SDS011;9178;51.120;6.192;2023-06-10T14:15:00;4.20;;;3.80;;
18102;SDS011;9178;51.120;6.192;2023-06-10T14:17:30;3.97;;;3.60;;
18102;SDS011;9178;51.120;6.192;2023-06-10T14:19:57;4.18;;;3.72;;
18102;SDS011;9178;51.120;6.192;2023-06-10T14:22:24;4.93;;;4.00;;
18102;SDS011;9178;51.120;6.192;2023-06-10T14:24:51;6.50;;;4.18;;
18102;SDS011;9178;51.120;6.192;2023-06-10T14:27:18;4.47;;;3.90;;
18102;SDS011;9178;51.120;6.192;2023-06-10T14:29:49;6.15;;;4.00;;
18102;SDS011;9178;51.120;6.192;2023-06-10T14:32:17;3.88;;;3.45;;
18102;SDS011;9178;51.120;6.192;2023-06-10T14:34:46;4.78;;;4.15;;
18102;SDS011;9178;51.120;6.192;2023-06-10T14:37:13;4.60;;;4.10;;
18102;SDS011;9178;51.120;6.192;2023-06-10T14:39:42;6.90;;;4.13;;
18102;SDS011;9178;51.120;6.192;2023-06-10T14:42:09;4.25;;;3.85;;
18102;SDS011;9178;51.120;6.192;2023-06-10T14:44:39;4.25;;;3.95;;
18102;SDS011;9178;51.120;6.192;2023-06-10T14:47:08;5.55;;;4.20;;
18102;SDS011;9178;51.120;6.192;2023-06-10T14:49:36;4.80;;;4.15;;
18102;SDS011;9178;51.120;6.192;2023-06-10T14:52:03;5.15;;;4.60;;
18102;SDS011;9178;51.120;6.192;2023-06-10T14:54:33;5.45;;;3.67;;
18102;SDS011;9178;51.120;6.192;2023-06-10T14:57:00;5.80;;;4.05;;
18102;SDS011;9178;51.120;6.192;2023-06-10T14:59:28;4.75;;;4.30;;
18102;SDS011;9178;51.120;6.192;2023-06-10T15:01:55;7.82;;;3.90;;
18102;SDS011;9178;51.120;6.192;2023-06-10T15:04:26;4.47;;;4.07;;
18102;SDS011;9178;51.120;6.192;2023-06-10T15:06:53;8.43;;;4.75;;
18102;SDS011;9178;51.120;6.192;2023-06-10T15:09:23;10.02;;;4.32;;
18102;SDS011;9178;51.120;6.192;2023-06-10T15:11:50;5.00;;;3.83;;
18102;SDS011;9178;51.120;6.192;2023-06-10T15:14:18;5.13;;;4.00;;
18102;SDS011;9178;51.120;6.192;2023-06-10T15:16:45;4.43;;;3.85;;
18102;SDS011;9178;51.120;6.192;2023-06-10T15:19:14;6.70;;;4.07;;
18102;SDS011;9178;51.120;6.192;2023-06-10T15:21:48;5.38;;;4.05;;
18102;SDS011;9178;51.120;6.192;2023-06-10T15:24:17;5.28;;;4.22;;
18102;SDS011;9178;51.120;6.192;2023-06-10T15:26:46;5.55;;;3.63;;
18102;SDS011;9178;51.120;6.192;2023-06-10T15:29:15;6.32;;;3.85;;
18102;SDS011;9178;51.120;6.192;2023-06-10T15:31:47;4.25;;;3.35;;
18102;SDS011;9178;51.120;6.192;2023-06-10T15:34:15;14.93;;;4.65;;